sensor_id;sensor_type;location;lat;lon;timestamp;temperature;humidity
20432;DHT22;10375;49.136;10.366;2022-11-20T00:01:30;2.70;99.90
20432;DHT22;10375;49.136;10.366;2022-11-20T00:03:57;2.70;99.90
20432;DHT22;10375;49.136;10.366;2022-11-20T00:06:26;2.70;99.90
20432;DHT22;10375;49.136;10.366;2022-11-20T00:08:55;2.70;99.90
20432;DHT22;10375;49.136;10.366;2022-11-20T00:11:25;2.70;99.90
20432;DHT22;10375;49.136;10.366;2022-11-20T00:13:54;2.70;99.90
20432;DHT22;10375;49.136;10.366;2022-11-20T00:16:23;2.70;99.90
20432;DHT22;10375;49.136;10.366;2022-11-20T00:18:51;2.70;99.90
20432;DHT22;10375;49.136;10.366;2022-11-20T00:21:24;2.70;99.90
20432;DHT22;10375;49.136;10.366;2022-11-20T00:23:53;2.70;99.90
20432;DHT22;10375;49.136;10.366;2022-11-20T00:26:22;2.70;99.90
20432;DHT22;10375;49.136;10.366;2022-11-20T00:28:53;2.70;99.90
20432;DHT22;10375;49.136;10.366;2022-11-20T00:31:20;2.70;99.90
20432;DHT22;10375;49.136;10.366;2022-11-20T00:33:47;2.70;99.90
20432;DHT22;10375;49.136;10.366;2022-11-20T00:36:16;2.80;99.90
20432;DHT22;10375;49.136;10.366;2022-11-20T00:38:44;2.80;99.90
20432;DHT22;10375;49.136;10.366;2022-11-20T00:41:13;2.90;99.90
20432;DHT22;10375;49.136;10.366;2022-11-20T00:43:41;2.90;99.90
20432;DHT22;10375;49.136;10.366;2022-11-20T00:46:14;2.90;99.90
20432;DHT22;10375;49.136;10.366;2022-11-20T00:48:42;2.90;99.90
20432;DHT22;10375;49.136;10.366;2022-11-20T00:51:12;3.00;99.90
20432;DHT22;10375;49.136;10.366;2022-11-20T00:53:39;3.00;99.90
20432;DHT22;10375;49.136;10.366;2022-11-20T00:56:09;3.00;99.90
20432;DHT22;10375;49.136;10.366;2022-11-20T00:58:38;3.00;99.90
20432;DHT22;10375;49.136;10.366;2022-11-20T01:01:13;3.00;99.90
20432;DHT22;10375;49.136;10.366;2022-11-20T01:03:42;3.00;99.90
20432;DHT22;10375;49.136;10.366;2022-11-20T01:08:44;3.00;99.90
20432;DHT22;10375;49.136;10.366;2022-11-20T01:11:14;3.00;99.90
20432;DHT22;10375;49.136;10.366;2022-11-20T01:13:41;3.00;99.90
20432;DHT22;10375;49.136;10.366;2022-11-20T01:16:20;3.10;99.90
20432;DHT22;10375;49.136;10.366;2022-11-20T01:18:51;3.00;99.90
20432;DHT22;10375;49.136;10.366;2022-11-20T01:21:21;3.00;99.90
20432;DHT22;10375;49.136;10.366;2022-11-20T01:23:49;3.00;99.90
20432;DHT22;10375;49.136;10.366;2022-11-20T01:26:23;3.00;99.90
20432;DHT22;10375;49.136;10.366;2022-11-20T01:28:51;3.10;99.90
20432;DHT22;10375;49.136;10.366;2022-11-20T01:31:21;3.10;99.90
20432;DHT22;10375;49.136;10.366;2022-11-20T01:33:51;3.10;99.90
20432;DHT22;10375;49.136;10.366;2022-11-20T01:36:19;3.10;99.90
20432;DHT22;10375;49.136;10.366;2022-11-20T01:38:50;3.10;99.90
20432;DHT22;10375;49.136;10.366;2022-11-20T01:41:17;3.10;99.90
20432;DHT22;10375;49.136;10.366;2022-11-20T01:44:04;3.10;99.90
20432;DHT22;10375;49.136;10.366;2022-11-20T01:46:38;3.10;99.90
20432;DHT22;10375;49.136;10.366;2022-11-20T01:49:18;3.10;99.90
20432;DHT22;10375;49.136;10.366;2022-11-20T01:51:50;3.10;99.90
20432;DHT22;10375;49.136;10.366;2022-11-20T01:54:23;3.20;99.90
20432;DHT22;10375;49.136;10.366;2022-11-20T01:56:52;3.10;99.90
20432;DHT22;10375;49.136;10.366;2022-11-20T01:59:24;3.20;99.90
20432;DHT22;10375;49.136;10.366;2022-11-20T02:01:52;3.20;99.90
20432;DHT22;10375;49.136;10.366;2022-11-20T02:04:20;3.30;99.90
20432;DHT22;10375;49.136;10.366;2022-11-20T02:06:51;3.20;99.90
20432;DHT22;10375;49.136;10.366;2022-11-20T02:09:21;3.30;99.90
20432;DHT22;10375;49.136;10.366;2022-11-20T02:11:48;3.30;99.90
20432;DHT22;10375;49.136;10.366;2022-11-20T02:14:15;3.30;99.90
20432;DHT22;10375;49.136;10.366;2022-11-20T02:16:47;3.30;99.90
20432;DHT22;10375;49.136;10.366;2022-11-20T02:19:28;3.30;99.90
20432;DHT22;10375;49.136;10.366;2022-11-20T02:22:10;3.30;99.90
20432;DHT22;10375;49.136;10.366;2022-11-20T02:24:39;3.30;99.90
20432;DHT22;10375;49.136;10.366;2022-11-20T02:27:10;3.30;99.90
20432;DHT22;10375;49.136;10.366;2022-11-20T02:29:46;3.30;99.90
20432;DHT22;10375;49.136;10.366;2022-11-20T02:32:32;3.30;99.90
20432;DHT22;10375;49.136;10.366;2022-11-20T02:37:47;3.30;99.90
20432;DHT22;10375;49.136;10.366;2022-11-20T02:40:15;3.40;99.90
20432;DHT22;10375;49.136;10.366;2022-11-20T02:42:43;3.30;99.90
20432;DHT22;10375;49.136;10.366;2022-11-20T02:45:10;3.30;99.90
20432;DHT22;10375;49.136;10.366;2022-11-20T02:47:37;3.30;99.90
20432;DHT22;10375;49.136;10.366;2022-11-20T02:50:05;3.30;99.90
20432;DHT22;10375;49.136;10.366;2022-11-20T02:52:32;3.30;99.90
20432;DHT22;10375;49.136;10.366;2022-11-20T02:54:59;3.30;99.90
20432;DHT22;10375;49.136;10.366;2022-11-20T02:57:27;3.30;99.90
20432;DHT22;10375;49.136;10.366;2022-11-20T02:59:54;3.40;99.90
20432;DHT22;10375;49.136;10.366;2022-11-20T03:02:22;3.40;99.90
20432;DHT22;10375;49.136;10.366;2022-11-20T03:04:49;3.40;99.90
20432;DHT22;10375;49.136;10.366;2022-11-20T03:07:16;3.50;99.90
20432;DHT22;10375;49.136;10.366;2022-11-20T03:09:43;3.50;99.90
20432;DHT22;10375;49.136;10.366;2022-11-20T03:12:10;3.60;99.90
20432;DHT22;10375;49.136;10.366;2022-11-20T03:14:37;3.70;99.90
20432;DHT22;10375;49.136;10.366;2022-11-20T03:17:04;3.80;99.90
20432;DHT22;10375;49.136;10.366;2022-11-20T03:19:31;3.90;99.90
20432;DHT22;10375;49.136;10.366;2022-11-20T03:21:58;4.00;99.90
20432;DHT22;10375;49.136;10.366;2022-11-20T03:24:25;4.00;99.90
20432;DHT22;10375;49.136;10.366;2022-11-20T03:26:52;4.10;99.90
20432;DHT22;10375;49.136;10.366;2022-11-20T03:29:19;4.20;99.90
20432;DHT22;10375;49.136;10.366;2022-11-20T03:31:46;4.30;99.90
20432;DHT22;10375;49.136;10.366;2022-11-20T03:34:13;4.30;99.90
20432;DHT22;10375;49.136;10.366;2022-11-20T03:36:43;4.40;99.90
20432;DHT22;10375;49.136;10.366;2022-11-20T03:39:10;4.50;99.90
20432;DHT22;10375;49.136;10.366;2022-11-20T03:41:39;4.50;99.90
20432;DHT22;10375;49.136;10.366;2022-11-20T03:44:09;4.50;99.90
20432;DHT22;10375;49.136;10.366;2022-11-20T03:46:36;4.50;99.90
20432;DHT22;10375;49.136;10.366;2022-11-20T03:49:03;4.50;99.90
20432;DHT22;10375;49.136;10.366;2022-11-20T03:51:33;4.60;99.90
20432;DHT22;10375;49.136;10.366;2022-11-20T03:54:06;4.70;99.90
20432;DHT22;10375;49.136;10.366;2022-11-20T03:56:35;4.70;99.90
20432;DHT22;10375;49.136;10.366;2022-11-20T03:59:03;4.70;99.90
20432;DHT22;10375;49.136;10.366;2022-11-20T04:01:33;4.80;99.90
20432;DHT22;10375;49.136;10.366;2022-11-20T04:04:01;4.80;99.90
20432;DHT22;10375;49.136;10.366;2022-11-20T04:06:32;4.80;99.90
20432;DHT22;10375;49.136;10.366;2022-11-20T04:09:00;4.80;99.90
20432;DHT22;10375;49.136;10.366;2022-11-20T04:11:32;4.80;99.90
20432;DHT22;10375;49.136;10.366;2022-11-20T04:14:02;4.80;99.90
20432;DHT22;10375;49.136;10.366;2022-11-20T04:16:31;4.90;99.90
20432;DHT22;10375;49.136;10.366;2022-11-20T04:19:00;4.90;99.90
20432;DHT22;10375;49.136;10.366;2022-11-20T04:21:28;4.80;99.90
20432;DHT22;10375;49.136;10.366;2022-11-20T04:23:56;4.90;99.90
20432;DHT22;10375;49.136;10.366;2022-11-20T04:26:24;4.80;99.90
20432;DHT22;10375;49.136;10.366;2022-11-20T04:28:52;4.80;99.90
20432;DHT22;10375;49.136;10.366;2022-11-20T04:31:31;4.80;99.90
20432;DHT22;10375;49.136;10.366;2022-11-20T04:34:03;4.80;99.90
20432;DHT22;10375;49.136;10.366;2022-11-20T04:36:31;4.90;99.90
20432;DHT22;10375;49.136;10.366;2022-11-20T04:39:00;4.90;99.90
20432;DHT22;10375;49.136;10.366;2022-11-20T04:41:30;4.90;99.90
20432;DHT22;10375;49.136;10.366;2022-11-20T04:43:59;4.90;99.90
20432;DHT22;10375;49.136;10.366;2022-11-20T04:46:31;4.90;99.90
20432;DHT22;10375;49.136;10.366;2022-11-20T04:48:59;4.90;99.90
20432;DHT22;10375;49.136;10.366;2022-11-20T04:51:26;4.90;99.90
20432;DHT22;10375;49.136;10.366;2022-11-20T04:53:54;4.90;99.90
20432;DHT22;10375;49.136;10.366;2022-11-20T04:56:21;4.90;99.90
20432;DHT22;10375;49.136;10.366;2022-11-20T04:58:48;4.90;99.90
20432;DHT22;10375;49.136;10.366;2022-11-20T05:01:18;4.90;99.90
20432;DHT22;10375;49.136;10.366;2022-11-20T05:03:46;4.90;99.90
20432;DHT22;10375;49.136;10.366;2022-11-20T05:06:16;4.90;99.90
20432;DHT22;10375;49.136;10.366;2022-11-20T05:08:44;4.90;99.90
20432;DHT22;10375;49.136;10.366;2022-11-20T05:11:16;4.90;99.90
20432;DHT22;10375;49.136;10.366;2022-11-20T05:13:43;4.90;99.90
20432;DHT22;10375;49.136;10.366;2022-11-20T05:16:16;4.90;99.90
20432;DHT22;10375;49.136;10.366;2022-11-20T05:18:43;4.90;99.90
20432;DHT22;10375;49.136;10.366;2022-11-20T05:21:11;4.90;99.90
20432;DHT22;10375;49.136;10.366;2022-11-20T05:23:38;4.90;99.90
20432;DHT22;10375;49.136;10.366;2022-11-20T05:26:07;4.90;99.90
20432;DHT22;10375;49.136;10.366;2022-11-20T05:28:34;5.00;99.90
20432;DHT22;10375;49.136;10.366;2022-11-20T05:31:15;5.00;99.90
20432;DHT22;10375;49.136;10.366;2022-11-20T05:33:47;5.00;99.90
20432;DHT22;10375;49.136;10.366;2022-11-20T05:36:15;4.90;99.90
20432;DHT22;10375;49.136;10.366;2022-11-20T05:38:42;4.90;99.90
20432;DHT22;10375;49.136;10.366;2022-11-20T05:41:18;4.90;99.90
20432;DHT22;10375;49.136;10.366;2022-11-20T05:43:46;4.90;99.90
20432;DHT22;10375;49.136;10.366;2022-11-20T05:46:15;4.90;99.90
20432;DHT22;10375;49.136;10.366;2022-11-20T05:48:43;4.80;99.90
20432;DHT22;10375;49.136;10.366;2022-11-20T05:51:14;4.80;99.90
20432;DHT22;10375;49.136;10.366;2022-11-20T05:53:42;4.90;99.90
20432;DHT22;10375;49.136;10.366;2022-11-20T05:56:17;4.80;99.90
20432;DHT22;10375;49.136;10.366;2022-11-20T05:58:45;4.80;99.90
20432;DHT22;10375;49.136;10.366;2022-11-20T06:01:17;4.80;99.90
20432;DHT22;10375;49.136;10.366;2022-11-20T06:03:44;4.80;99.90
20432;DHT22;10375;49.136;10.366;2022-11-20T06:06:13;4.80;99.90
20432;DHT22;10375;49.136;10.366;2022-11-20T06:08:41;4.90;99.90
20432;DHT22;10375;49.136;10.366;2022-11-20T06:11:09;4.80;99.90
20432;DHT22;10375;49.136;10.366;2022-11-20T06:13:37;4.80;99.90
20432;DHT22;10375;49.136;10.366;2022-11-20T06:16:08;4.80;99.90
20432;DHT22;10375;49.136;10.366;2022-11-20T06:18:36;4.70;99.90
20432;DHT22;10375;49.136;10.366;2022-11-20T06:21:05;4.80;99.90
20432;DHT22;10375;49.136;10.366;2022-11-20T06:23:34;4.80;99.90
20432;DHT22;10375;49.136;10.366;2022-11-20T06:26:04;4.80;99.90
20432;DHT22;10375;49.136;10.366;2022-11-20T06:28:31;4.80;99.90
20432;DHT22;10375;49.136;10.366;2022-11-20T06:30:59;4.80;99.90
20432;DHT22;10375;49.136;10.366;2022-11-20T06:33:27;4.80;99.90
20432;DHT22;10375;49.136;10.366;2022-11-20T06:36:00;4.80;99.90
20432;DHT22;10375;49.136;10.366;2022-11-20T06:38:34;4.80;99.90
20432;DHT22;10375;49.136;10.366;2022-11-20T06:41:03;4.80;99.90
20432;DHT22;10375;49.136;10.366;2022-11-20T06:43:30;4.90;99.90
20432;DHT22;10375;49.136;10.366;2022-11-20T06:45:58;4.90;99.90
20432;DHT22;10375;49.136;10.366;2022-11-20T06:48:27;4.80;99.90
20432;DHT22;10375;49.136;10.366;2022-11-20T06:50:55;4.80;99.90
20432;DHT22;10375;49.136;10.366;2022-11-20T06:53:23;4.80;99.90
20432;DHT22;10375;49.136;10.366;2022-11-20T06:55:51;4.80;99.90
20432;DHT22;10375;49.136;10.366;2022-11-20T06:58:18;4.90;99.90
20432;DHT22;10375;49.136;10.366;2022-11-20T07:00:45;4.80;99.90
20432;DHT22;10375;49.136;10.366;2022-11-20T07:03:12;4.90;99.90
20432;DHT22;10375;49.136;10.366;2022-11-20T07:05:40;4.80;99.90
20432;DHT22;10375;49.136;10.366;2022-11-20T07:08:07;4.90;99.90
20432;DHT22;10375;49.136;10.366;2022-11-20T07:10:35;4.90;99.90
20432;DHT22;10375;49.136;10.366;2022-11-20T07:13:03;4.90;99.90
20432;DHT22;10375;49.136;10.366;2022-11-20T07:15:30;4.90;99.90
20432;DHT22;10375;49.136;10.366;2022-11-20T07:18:00;4.90;99.90
20432;DHT22;10375;49.136;10.366;2022-11-20T07:20:31;4.80;99.90
20432;DHT22;10375;49.136;10.366;2022-11-20T07:22:58;4.80;99.90
20432;DHT22;10375;49.136;10.366;2022-11-20T07:25:26;4.80;99.90
20432;DHT22;10375;49.136;10.366;2022-11-20T07:28:00;4.80;99.90
20432;DHT22;10375;49.136;10.366;2022-11-20T07:30:27;4.80;99.90
20432;DHT22;10375;49.136;10.366;2022-11-20T07:32:55;4.80;99.90
20432;DHT22;10375;49.136;10.366;2022-11-20T07:35:24;4.80;99.90
20432;DHT22;10375;49.136;10.366;2022-11-20T07:37:50;4.80;99.90
20432;DHT22;10375;49.136;10.366;2022-11-20T07:40:18;4.80;99.90
20432;DHT22;10375;49.136;10.366;2022-11-20T07:42:53;4.90;99.90
20432;DHT22;10375;49.136;10.366;2022-11-20T07:45:23;4.90;99.90
20432;DHT22;10375;49.136;10.366;2022-11-20T07:47:51;4.90;99.90
20432;DHT22;10375;49.136;10.366;2022-11-20T07:50:18;4.90;99.90
20432;DHT22;10375;49.136;10.366;2022-11-20T07:52:46;4.90;99.90
20432;DHT22;10375;49.136;10.366;2022-11-20T07:55:13;5.00;99.90
20432;DHT22;10375;49.136;10.366;2022-11-20T07:57:41;4.90;99.90
20432;DHT22;10375;49.136;10.366;2022-11-20T08:00:09;5.00;99.90
20432;DHT22;10375;49.136;10.366;2022-11-20T08:02:38;5.00;99.90
20432;DHT22;10375;49.136;10.366;2022-11-20T08:05:07;5.10;99.90
20432;DHT22;10375;49.136;10.366;2022-11-20T08:07:38;5.10;99.90
20432;DHT22;10375;49.136;10.366;2022-11-20T08:10:06;5.10;99.90
20432;DHT22;10375;49.136;10.366;2022-11-20T08:12:33;5.10;99.90
20432;DHT22;10375;49.136;10.366;2022-11-20T08:15:19;5.10;99.90
20432;DHT22;10375;49.136;10.366;2022-11-20T08:17:46;5.10;99.90
20432;DHT22;10375;49.136;10.366;2022-11-20T08:20:33;5.10;99.90
20432;DHT22;10375;49.136;10.366;2022-11-20T08:23:03;5.10;99.90
20432;DHT22;10375;49.136;10.366;2022-11-20T08:25:31;5.10;99.90
20432;DHT22;10375;49.136;10.366;2022-11-20T08:28:00;5.10;99.90
20432;DHT22;10375;49.136;10.366;2022-11-20T08:30:41;5.10;99.90
20432;DHT22;10375;49.136;10.366;2022-11-20T08:33:09;5.20;99.90
20432;DHT22;10375;49.136;10.366;2022-11-20T08:35:37;5.20;99.90
20432;DHT22;10375;49.136;10.366;2022-11-20T08:38:05;5.30;99.90
20432;DHT22;10375;49.136;10.366;2022-11-20T08:40:32;5.30;99.90
20432;DHT22;10375;49.136;10.366;2022-11-20T08:43:00;5.40;99.90
20432;DHT22;10375;49.136;10.366;2022-11-20T08:45:27;5.50;99.90
20432;DHT22;10375;49.136;10.366;2022-11-20T08:48:03;5.50;99.90
20432;DHT22;10375;49.136;10.366;2022-11-20T08:50:30;5.50;99.90
20432;DHT22;10375;49.136;10.366;2022-11-20T08:53:06;5.50;99.90
20432;DHT22;10375;49.136;10.366;2022-11-20T08:55:33;5.40;99.90
20432;DHT22;10375;49.136;10.366;2022-11-20T08:58:06;5.40;99.90
20432;DHT22;10375;49.136;10.366;2022-11-20T09:00:34;5.40;99.90
20432;DHT22;10375;49.136;10.366;2022-11-20T09:03:01;5.40;99.90
20432;DHT22;10375;49.136;10.366;2022-11-20T09:05:28;5.40;99.90
20432;DHT22;10375;49.136;10.366;2022-11-20T09:07:59;5.40;99.90
20432;DHT22;10375;49.136;10.366;2022-11-20T09:10:26;5.40;99.90
20432;DHT22;10375;49.136;10.366;2022-11-20T09:12:54;5.50;99.90
20432;DHT22;10375;49.136;10.366;2022-11-20T09:15:25;5.40;99.90
20432;DHT22;10375;49.136;10.366;2022-11-20T09:18:05;5.50;99.90
20432;DHT22;10375;49.136;10.366;2022-11-20T09:20:32;5.50;99.90
20432;DHT22;10375;49.136;10.366;2022-11-20T09:22:59;5.50;99.90
20432;DHT22;10375;49.136;10.366;2022-11-20T09:25:26;5.60;99.90
20432;DHT22;10375;49.136;10.366;2022-11-20T09:27:57;5.60;99.90
20432;DHT22;10375;49.136;10.366;2022-11-20T09:30:25;5.60;99.90
20432;DHT22;10375;49.136;10.366;2022-11-20T09:32:53;5.70;99.90
20432;DHT22;10375;49.136;10.366;2022-11-20T09:35:20;5.80;99.90
20432;DHT22;10375;49.136;10.366;2022-11-20T09:37:47;5.90;99.90
20432;DHT22;10375;49.136;10.366;2022-11-20T09:40:28;5.90;99.90
20432;DHT22;10375;49.136;10.366;2022-11-20T09:43:03;5.80;99.90
20432;DHT22;10375;49.136;10.366;2022-11-20T09:48:30;5.70;99.90
20432;DHT22;10375;49.136;10.366;2022-11-20T09:56:19;5.70;99.90
20432;DHT22;10375;49.136;10.366;2022-11-20T09:58:50;5.60;99.90
20432;DHT22;10375;49.136;10.366;2022-11-20T10:01:20;5.60;99.90
20432;DHT22;10375;49.136;10.366;2022-11-20T10:04:12;5.60;99.90
20432;DHT22;10375;49.136;10.366;2022-11-20T10:07:04;5.60;99.90
20432;DHT22;10375;49.136;10.366;2022-11-20T10:09:55;5.60;99.90
20432;DHT22;10375;49.136;10.366;2022-11-20T10:18:11;5.70;99.90
20432;DHT22;10375;49.136;10.366;2022-11-20T10:24:02;5.70;99.90
20432;DHT22;10375;49.136;10.366;2022-11-20T10:29:22;5.90;99.90
20432;DHT22;10375;49.136;10.366;2022-11-20T10:31:56;5.90;99.90
20432;DHT22;10375;49.136;10.366;2022-11-20T10:37:28;5.80;99.90
20432;DHT22;10375;49.136;10.366;2022-11-20T10:40:10;5.80;99.90
20432;DHT22;10375;49.136;10.366;2022-11-20T10:42:51;5.80;99.90
20432;DHT22;10375;49.136;10.366;2022-11-20T10:50:36;5.70;99.90
20432;DHT22;10375;49.136;10.366;2022-11-20T11:02:20;5.60;99.90
20432;DHT22;10375;49.136;10.366;2022-11-20T11:04:52;5.60;99.90
20432;DHT22;10375;49.136;10.366;2022-11-20T11:07:39;5.70;99.90
20432;DHT22;10375;49.136;10.366;2022-11-20T11:12:59;6.00;99.90
20432;DHT22;10375;49.136;10.366;2022-11-20T11:15:37;5.90;99.90
20432;DHT22;10375;49.136;10.366;2022-11-20T11:18:08;5.90;99.90
20432;DHT22;10375;49.136;10.366;2022-11-20T11:20:36;6.00;99.90
20432;DHT22;10375;49.136;10.366;2022-11-20T11:23:03;6.10;99.90
20432;DHT22;10375;49.136;10.366;2022-11-20T11:25:33;6.10;99.90
20432;DHT22;10375;49.136;10.366;2022-11-20T11:28:17;6.20;99.90
20432;DHT22;10375;49.136;10.366;2022-11-20T11:30:46;6.20;99.90
20432;DHT22;10375;49.136;10.366;2022-11-20T11:33:30;6.20;99.90
20432;DHT22;10375;49.136;10.366;2022-11-20T11:36:01;6.10;99.90
20432;DHT22;10375;49.136;10.366;2022-11-20T11:38:35;6.10;99.90
20432;DHT22;10375;49.136;10.366;2022-11-20T11:41:04;6.00;99.90
20432;DHT22;10375;49.136;10.366;2022-11-20T11:43:34;6.10;99.90
20432;DHT22;10375;49.136;10.366;2022-11-20T11:46:23;6.10;99.90
20432;DHT22;10375;49.136;10.366;2022-11-20T11:57:41;6.10;99.90
20432;DHT22;10375;49.136;10.366;2022-11-20T12:00:17;6.10;99.90
20432;DHT22;10375;49.136;10.366;2022-11-20T12:05:24;6.10;99.90
20432;DHT22;10375;49.136;10.366;2022-11-20T12:13:09;6.10;99.90
20432;DHT22;10375;49.136;10.366;2022-11-20T12:15:40;6.10;99.90
20432;DHT22;10375;49.136;10.366;2022-11-20T12:18:15;6.10;99.90
20432;DHT22;10375;49.136;10.366;2022-11-20T12:20:53;6.10;99.90
20432;DHT22;10375;49.136;10.366;2022-11-20T12:23:49;6.10;99.90
20432;DHT22;10375;49.136;10.366;2022-11-20T12:30:01;6.10;99.90
20432;DHT22;10375;49.136;10.366;2022-11-20T12:34:59;6.20;99.90
20432;DHT22;10375;49.136;10.366;2022-11-20T12:40:50;6.20;99.90
20432;DHT22;10375;49.136;10.366;2022-11-20T12:43:26;6.20;99.90
20432;DHT22;10375;49.136;10.366;2022-11-20T12:52:13;6.30;99.90
20432;DHT22;10375;49.136;10.366;2022-11-20T12:54:46;6.30;99.90
20432;DHT22;10375;49.136;10.366;2022-11-20T12:57:29;6.30;99.90
20432;DHT22;10375;49.136;10.366;2022-11-20T13:13:43;6.60;99.90
20432;DHT22;10375;49.136;10.366;2022-11-20T13:16:37;6.60;99.90
20432;DHT22;10375;49.136;10.366;2022-11-20T13:19:10;6.50;99.90
20432;DHT22;10375;49.136;10.366;2022-11-20T13:21:45;6.50;99.90
20432;DHT22;10375;49.136;10.366;2022-11-20T13:26:47;6.60;99.90
20432;DHT22;10375;49.136;10.366;2022-11-20T13:29:18;6.60;99.90
20432;DHT22;10375;49.136;10.366;2022-11-20T13:31:47;6.60;99.90
20432;DHT22;10375;49.136;10.366;2022-11-20T13:34:25;6.60;99.90
20432;DHT22;10375;49.136;10.366;2022-11-20T13:36:55;6.70;99.90
20432;DHT22;10375;49.136;10.366;2022-11-20T13:39:35;6.70;99.90
20432;DHT22;10375;49.136;10.366;2022-11-20T13:44:46;6.70;99.90
20432;DHT22;10375;49.136;10.366;2022-11-20T13:47:23;6.70;99.90
20432;DHT22;10375;49.136;10.366;2022-11-20T13:49:52;6.70;99.90
20432;DHT22;10375;49.136;10.366;2022-11-20T13:52:37;6.60;99.90
20432;DHT22;10375;49.136;10.366;2022-11-20T14:00:50;6.60;99.90
20432;DHT22;10375;49.136;10.366;2022-11-20T14:03:21;6.50;99.90
20432;DHT22;10375;49.136;10.366;2022-11-20T14:06:18;6.50;99.90
20432;DHT22;10375;49.136;10.366;2022-11-20T14:08:48;6.50;99.90
20432;DHT22;10375;49.136;10.366;2022-11-20T14:11:26;6.50;99.90
20432;DHT22;10375;49.136;10.366;2022-11-20T14:14:16;6.60;99.90
20432;DHT22;10375;49.136;10.366;2022-11-20T14:16:44;6.70;99.90
20432;DHT22;10375;49.136;10.366;2022-11-20T14:24:37;6.90;99.90
20432;DHT22;10375;49.136;10.366;2022-11-20T14:27:04;6.90;99.90
20432;DHT22;10375;49.136;10.366;2022-11-20T14:29:36;7.00;99.90
20432;DHT22;10375;49.136;10.366;2022-11-20T14:32:04;7.00;99.90
20432;DHT22;10375;49.136;10.366;2022-11-20T14:34:35;7.00;99.90
20432;DHT22;10375;49.136;10.366;2022-11-20T14:37:06;7.00;99.90
20432;DHT22;10375;49.136;10.366;2022-11-20T14:39:52;6.80;99.90
20432;DHT22;10375;49.136;10.366;2022-11-20T14:42:27;6.70;99.90
20432;DHT22;10375;49.136;10.366;2022-11-20T14:44:59;6.70;99.90
20432;DHT22;10375;49.136;10.366;2022-11-20T14:47:29;6.60;99.90
20432;DHT22;10375;49.136;10.366;2022-11-20T14:49:57;6.50;99.90
20432;DHT22;10375;49.136;10.366;2022-11-20T14:52:27;6.40;99.90
20432;DHT22;10375;49.136;10.366;2022-11-20T14:54:56;6.40;99.90
20432;DHT22;10375;49.136;10.366;2022-11-20T14:57:28;6.30;99.90
20432;DHT22;10375;49.136;10.366;2022-11-20T15:00:17;6.20;99.90
20432;DHT22;10375;49.136;10.366;2022-11-20T15:02:46;6.20;99.90
20432;DHT22;10375;49.136;10.366;2022-11-20T15:05:14;6.10;99.90
20432;DHT22;10375;49.136;10.366;2022-11-20T15:07:45;6.10;99.90
20432;DHT22;10375;49.136;10.366;2022-11-20T15:10:22;6.00;99.90
20432;DHT22;10375;49.136;10.366;2022-11-20T15:12:54;5.90;99.90
20432;DHT22;10375;49.136;10.366;2022-11-20T15:15:31;5.80;99.90
20432;DHT22;10375;49.136;10.366;2022-11-20T15:17:59;5.80;99.90
20432;DHT22;10375;49.136;10.366;2022-11-20T15:20:30;5.70;99.90
20432;DHT22;10375;49.136;10.366;2022-11-20T15:22:57;5.70;99.90
20432;DHT22;10375;49.136;10.366;2022-11-20T15:25:24;5.60;99.90
20432;DHT22;10375;49.136;10.366;2022-11-20T15:27:56;5.60;99.90
20432;DHT22;10375;49.136;10.366;2022-11-20T15:30:24;5.50;99.90
20432;DHT22;10375;49.136;10.366;2022-11-20T15:32:54;5.50;99.90
20432;DHT22;10375;49.136;10.366;2022-11-20T15:35:21;5.50;99.90
20432;DHT22;10375;49.136;10.366;2022-11-20T15:37:48;5.40;99.90
20432;DHT22;10375;49.136;10.366;2022-11-20T15:40:15;5.30;99.90
20432;DHT22;10375;49.136;10.366;2022-11-20T15:42:43;5.30;99.90
20432;DHT22;10375;49.136;10.366;2022-11-20T15:45:42;5.30;99.90
20432;DHT22;10375;49.136;10.366;2022-11-20T15:48:13;5.30;99.90
20432;DHT22;10375;49.136;10.366;2022-11-20T15:50:56;5.20;99.90
20432;DHT22;10375;49.136;10.366;2022-11-20T15:53:24;5.20;99.90
20432;DHT22;10375;49.136;10.366;2022-11-20T15:55:51;5.10;99.90
20432;DHT22;10375;49.136;10.366;2022-11-20T15:58:18;5.10;99.90
20432;DHT22;10375;49.136;10.366;2022-11-20T16:00:45;5.00;99.90
20432;DHT22;10375;49.136;10.366;2022-11-20T16:03:14;5.00;99.90
20432;DHT22;10375;49.136;10.366;2022-11-20T16:05:41;4.90;99.90
20432;DHT22;10375;49.136;10.366;2022-11-20T16:08:09;4.90;99.90
20432;DHT22;10375;49.136;10.366;2022-11-20T16:10:39;4.80;99.90
20432;DHT22;10375;49.136;10.366;2022-11-20T16:13:14;4.70;99.90
20432;DHT22;10375;49.136;10.366;2022-11-20T16:16:09;4.60;99.90
20432;DHT22;10375;49.136;10.366;2022-11-20T16:18:38;4.60;99.90
20432;DHT22;10375;49.136;10.366;2022-11-20T16:21:10;4.50;99.90
20432;DHT22;10375;49.136;10.366;2022-11-20T16:23:39;4.40;99.90
20432;DHT22;10375;49.136;10.366;2022-11-20T16:26:12;4.40;99.90
20432;DHT22;10375;49.136;10.366;2022-11-20T16:28:40;4.30;99.90
20432;DHT22;10375;49.136;10.366;2022-11-20T16:31:15;4.30;99.90
20432;DHT22;10375;49.136;10.366;2022-11-20T16:33:52;4.20;99.90
20432;DHT22;10375;49.136;10.366;2022-11-20T16:36:21;4.20;99.90
20432;DHT22;10375;49.136;10.366;2022-11-20T16:38:58;4.20;99.90
20432;DHT22;10375;49.136;10.366;2022-11-20T16:41:31;4.10;99.90
20432;DHT22;10375;49.136;10.366;2022-11-20T16:44:00;4.10;99.90
20432;DHT22;10375;49.136;10.366;2022-11-20T16:46:30;4.00;99.90
20432;DHT22;10375;49.136;10.366;2022-11-20T16:48:59;3.90;99.90
20432;DHT22;10375;49.136;10.366;2022-11-20T16:51:28;3.90;99.90
20432;DHT22;10375;49.136;10.366;2022-11-20T16:53:56;3.80;99.90
20432;DHT22;10375;49.136;10.366;2022-11-20T16:56:25;3.70;99.90
20432;DHT22;10375;49.136;10.366;2022-11-20T16:58:55;3.60;99.90
20432;DHT22;10375;49.136;10.366;2022-11-20T17:01:24;3.60;99.90
20432;DHT22;10375;49.136;10.366;2022-11-20T17:04:03;3.60;99.90
20432;DHT22;10375;49.136;10.366;2022-11-20T17:06:38;3.70;99.90
20432;DHT22;10375;49.136;10.366;2022-11-20T17:09:07;3.80;99.90
20432;DHT22;10375;49.136;10.366;2022-11-20T17:11:37;3.80;99.90
20432;DHT22;10375;49.136;10.366;2022-11-20T17:14:05;3.80;99.90
20432;DHT22;10375;49.136;10.366;2022-11-20T17:16:35;3.90;99.90
20432;DHT22;10375;49.136;10.366;2022-11-20T17:19:03;3.90;99.90
20432;DHT22;10375;49.136;10.366;2022-11-20T17:21:32;4.00;99.90
20432;DHT22;10375;49.136;10.366;2022-11-20T17:24:03;4.00;99.90
20432;DHT22;10375;49.136;10.366;2022-11-20T17:26:31;4.00;99.90
20432;DHT22;10375;49.136;10.366;2022-11-20T17:29:00;4.00;99.90
20432;DHT22;10375;49.136;10.366;2022-11-20T17:31:29;4.10;99.90
20432;DHT22;10375;49.136;10.366;2022-11-20T17:33:57;4.10;99.90
20432;DHT22;10375;49.136;10.366;2022-11-20T17:36:28;4.00;99.90
20432;DHT22;10375;49.136;10.366;2022-11-20T17:38:55;4.00;99.90
20432;DHT22;10375;49.136;10.366;2022-11-20T17:41:24;4.00;99.90